createdAt,value
2022-10-19T00:00:44.922Z,22.83
2022-10-19T00:06:56.486Z,23.20
2022-10-19T00:09:58.710Z,22.57
2022-10-19T00:13:00.785Z,23.75
2022-10-19T00:16:10.613Z,23.92
2022-10-19T00:19:17.201Z,23.45
2022-10-19T00:22:19.168Z,23.50
2022-10-19T00:25:21.122Z,23.43
2022-10-19T00:28:23.176Z,25.50
2022-10-19T00:31:25.836Z,24.40
2022-10-19T00:34:27.901Z,23.42
2022-10-19T00:37:30.145Z,23.87
2022-10-19T00:40:40.436Z,23.57
2022-10-19T00:44:02.743Z,24.23
2022-10-19T00:47:07.526Z,23.58
2022-10-19T00:50:12.545Z,23.92
2022-10-19T00:53:14.881Z,24.37
2022-10-19T00:56:17.745Z,24.27
2022-10-19T00:59:22.164Z,22.87
2022-10-19T01:02:24.206Z,23.05
2022-10-19T01:05:27.671Z,23.45
2022-10-19T01:08:31.072Z,24.70
2022-10-19T01:12:01.100Z,23.30
2022-10-19T01:15:45.020Z,22.83
2022-10-19T01:19:08.461Z,23.50
2022-10-19T01:22:50.912Z,24.15
2022-10-19T01:26:02.030Z,24.27
2022-10-19T01:29:09.985Z,23.70
2022-10-19T01:32:21.271Z,23.75
2022-10-19T01:35:29.923Z,24.40
2022-10-19T01:38:53.382Z,25.17
2022-10-19T01:42:24.208Z,24.90
2022-10-19T01:45:28.619Z,24.57
2022-10-19T01:48:34.866Z,26.37
2022-10-19T01:51:43.872Z,24.37
2022-10-19T01:54:50.596Z,24.17
2022-10-19T01:57:59.410Z,25.30
2022-10-19T02:01:06.253Z,25.80
2022-10-19T02:04:09.061Z,25.73
2022-10-19T02:07:11.716Z,25.55
2022-10-19T02:13:21.880Z,25.50
2022-10-19T02:16:35.070Z,24.63
2022-10-19T02:19:37.439Z,24.80
2022-10-19T02:22:40.166Z,25.35
2022-10-19T02:25:42.250Z,23.30
2022-10-19T02:28:44.656Z,25.07
2022-10-19T02:31:46.741Z,24.57
2022-10-19T02:34:48.747Z,25.37
2022-10-19T02:37:51.030Z,25.95
2022-10-19T02:41:16.174Z,25.58
2022-10-19T02:44:26.594Z,25.37
2022-10-19T02:47:36.945Z,25.73
2022-10-19T02:50:44.326Z,24.55
2022-10-19T02:53:46.602Z,26.37
2022-10-19T02:56:48.499Z,24.12
2022-10-19T02:59:51.679Z,24.67
2022-10-19T03:02:53.623Z,23.77
2022-10-19T03:05:55.822Z,23.30
2022-10-19T03:08:57.777Z,22.90
2022-10-19T03:11:59.894Z,23.23
2022-10-19T03:15:01.911Z,23.83
2022-10-19T03:18:04.387Z,23.70
2022-10-19T03:21:09.491Z,24.05
2022-10-19T03:24:12.306Z,23.48
2022-10-19T03:27:14.385Z,22.25
2022-10-19T03:30:17.756Z,23.60
2022-10-19T03:33:19.930Z,22.30
2022-10-19T03:36:27.510Z,22.27
2022-10-19T03:39:29.576Z,23.52
2022-10-19T03:42:31.622Z,23.17
2022-10-19T03:45:33.635Z,23.67
2022-10-19T03:48:36.049Z,23.00
2022-10-19T03:51:38.054Z,25.27
2022-10-19T03:54:40.101Z,23.98
2022-10-19T03:57:42.626Z,22.92
2022-10-19T04:00:45.386Z,24.80
2022-10-19T04:03:47.776Z,23.47
2022-10-19T04:06:50.655Z,24.02
2022-10-19T04:09:52.683Z,22.62
2022-10-19T04:12:54.700Z,22.80
2022-10-19T04:15:56.724Z,23.83
2022-10-19T04:18:59.450Z,23.50
2022-10-19T04:22:01.822Z,23.87
2022-10-19T04:25:04.154Z,23.73
2022-10-19T04:28:06.338Z,22.77
2022-10-19T04:31:10.040Z,23.57
2022-10-19T04:34:12.452Z,22.80
2022-10-19T04:37:14.430Z,23.02
2022-10-19T04:40:19.854Z,23.12
2022-10-19T04:43:22.516Z,23.23
2022-10-19T04:46:26.214Z,23.27
2022-10-19T04:49:28.509Z,23.47
2022-10-19T04:52:31.261Z,22.92
2022-10-19T04:55:33.235Z,23.92
2022-10-19T04:58:35.451Z,23.50
2022-10-19T05:01:37.553Z,22.73
2022-10-19T05:04:41.831Z,23.50
2022-10-19T05:07:49.261Z,23.52
2022-10-19T05:10:51.156Z,28.98
2022-10-19T05:13:53.221Z,26.35
2022-10-19T05:16:55.130Z,26.37
2022-10-19T05:19:57.560Z,24.73
2022-10-19T05:23:03.261Z,24.33
2022-10-19T05:26:17.595Z,25.27
2022-10-19T05:29:19.993Z,23.65
2022-10-19T05:32:22.264Z,24.13
2022-10-19T05:35:24.214Z,23.60
2022-10-19T05:38:26.223Z,23.52
2022-10-19T05:41:28.355Z,23.62
2022-10-19T05:44:30.470Z,24.63
2022-10-19T05:47:34.288Z,23.87
2022-10-19T05:50:36.778Z,23.63
2022-10-19T05:56:45.963Z,25.45
2022-10-19T05:59:48.066Z,27.52
2022-10-19T06:02:50.022Z,28.37
2022-10-19T06:05:53.271Z,29.20
2022-10-19T06:08:57.006Z,28.48
2022-10-19T06:11:59.006Z,27.55
2022-10-19T06:15:01.058Z,27.37
2022-10-19T06:18:10.665Z,28.13
2022-10-19T06:21:15.466Z,25.97
2022-10-19T06:24:17.451Z,25.65
2022-10-19T06:27:19.523Z,25.48
2022-10-19T06:30:24.448Z,23.33
2022-10-19T06:33:32.999Z,21.47
2022-10-19T06:36:35.333Z,19.23
2022-10-19T06:39:37.390Z,19.25
2022-10-19T06:42:39.433Z,16.65
2022-10-19T06:45:41.463Z,13.82
2022-10-19T06:48:44.157Z,12.20
2022-10-19T06:51:46.042Z,10.60
2022-10-19T06:54:48.028Z,9.43
2022-10-19T06:57:50.087Z,7.53
2022-10-19T07:00:57.356Z,7.53
2022-10-19T07:03:59.478Z,6.57
2022-10-19T07:07:01.520Z,6.50
2022-10-19T07:10:03.934Z,6.93
2022-10-19T07:13:06.390Z,5.60
2022-10-19T07:16:17.991Z,5.25
2022-10-19T07:19:26.901Z,5.10
2022-10-19T07:22:28.913Z,5.10
2022-10-19T07:25:31.028Z,5.22
2022-10-19T07:28:33.238Z,4.80
2022-10-19T07:31:35.718Z,4.97
2022-10-19T07:34:37.684Z,4.35
2022-10-19T07:37:39.767Z,3.27
2022-10-19T07:40:47.603Z,4.25
2022-10-19T07:43:50.420Z,3.47
2022-10-19T07:46:52.474Z,4.43
2022-10-19T07:49:54.440Z,4.62
2022-10-19T07:52:56.398Z,3.13
2022-10-19T07:56:06.553Z,3.30
2022-10-19T07:59:10.185Z,3.40
2022-10-19T08:02:16.519Z,2.95
2022-10-19T08:05:18.659Z,3.00
2022-10-19T08:08:20.673Z,3.00
2022-10-19T08:11:29.880Z,3.40
2022-10-19T08:14:32.122Z,3.50
2022-10-19T08:17:37.227Z,3.50
2022-10-19T08:20:45.178Z,3.37
2022-10-19T08:23:47.146Z,3.00
2022-10-19T08:26:51.384Z,2.90
2022-10-19T08:29:53.397Z,2.78
2022-10-19T08:32:55.383Z,2.03
2022-10-19T08:35:57.450Z,2.20
2022-10-19T08:38:59.679Z,2.60
2022-10-19T08:42:07.539Z,2.35
2022-10-19T08:45:31.260Z,3.42
2022-10-19T08:48:43.103Z,2.95
2022-10-19T08:51:49.890Z,3.03
2022-10-19T08:54:53.715Z,3.10
2022-10-19T08:58:02.641Z,2.72
2022-10-19T09:01:33.805Z,3.25
2022-10-19T09:04:42.057Z,3.50
2022-10-19T09:07:46.094Z,3.55
2022-10-19T09:10:51.602Z,3.30
2022-10-19T09:14:25.481Z,2.72
2022-10-19T09:17:28.207Z,3.10
2022-10-19T09:20:45.150Z,2.80
2022-10-19T09:24:06.800Z,1.92
2022-10-19T09:27:20.909Z,2.50
2022-10-19T09:30:24.325Z,2.58
2022-10-19T09:33:35.044Z,2.45
2022-10-19T09:36:56.992Z,2.20
2022-10-19T09:39:59.255Z,2.45
2022-10-19T09:43:09.600Z,2.23
2022-10-19T09:46:20.377Z,2.85
2022-10-19T09:49:46.369Z,2.60
2022-10-19T09:53:05.168Z,2.22
2022-10-19T09:56:08.826Z,2.42
2022-10-19T09:59:23.223Z,2.63
2022-10-19T10:02:33.423Z,2.90
2022-10-19T10:05:40.565Z,2.72
2022-10-19T10:08:58.992Z,2.42
2022-10-19T10:12:01.285Z,3.10
2022-10-19T10:15:06.611Z,2.93
2022-10-19T10:18:14.826Z,2.60
2022-10-19T10:21:25.911Z,2.97
2022-10-19T10:24:30.943Z,2.78
2022-10-19T10:27:36.233Z,2.55
2022-10-19T10:30:38.805Z,2.67
2022-10-19T10:33:45.791Z,2.80
2022-10-19T10:36:53.934Z,2.72
2022-10-19T10:40:00.429Z,2.47
2022-10-19T10:43:15.827Z,2.25
2022-10-19T10:46:24.110Z,2.10
2022-10-19T10:49:29.211Z,2.25
2022-10-19T10:52:31.656Z,1.80
2022-10-19T10:55:34.460Z,1.60
2022-10-19T10:58:50.162Z,1.85
2022-10-19T11:02:11.313Z,1.73
2022-10-19T11:05:32.387Z,2.15
2022-10-19T11:09:00.055Z,1.70
2022-10-19T11:12:06.511Z,2.00
2022-10-19T11:15:21.455Z,2.10
2022-10-19T11:18:36.929Z,1.80
2022-10-19T11:21:54.847Z,1.62
2022-10-19T11:25:18.661Z,1.73
2022-10-19T11:28:41.651Z,2.00
2022-10-19T11:31:55.477Z,1.62
2022-10-19T11:35:12.512Z,1.73
2022-10-19T11:38:36.421Z,1.70
2022-10-19T11:41:51.309Z,1.87
2022-10-19T11:44:53.172Z,1.60
2022-10-19T11:48:13.798Z,1.73
2022-10-19T11:51:37.314Z,1.90
2022-10-19T11:55:06.821Z,2.08
2022-10-19T11:58:34.578Z,1.95
2022-10-19T12:01:54.440Z,1.90
2022-10-19T12:05:04.410Z,2.00
2022-10-19T12:08:09.585Z,2.13
2022-10-19T12:11:38.675Z,2.00
2022-10-19T12:14:44.005Z,2.00
2022-10-19T12:17:49.574Z,2.10
2022-10-19T12:20:56.351Z,1.80
2022-10-19T12:24:01.684Z,2.07
2022-10-19T12:27:05.397Z,2.05
2022-10-19T12:30:15.212Z,1.90
2022-10-19T12:33:25.362Z,2.00
2022-10-19T12:36:37.215Z,2.00
2022-10-19T12:39:45.960Z,2.13
2022-10-19T12:42:58.657Z,2.10
2022-10-19T12:46:14.942Z,2.10
2022-10-19T12:49:29.098Z,1.90
2022-10-19T12:52:48.411Z,2.08
2022-10-19T12:56:05.334Z,1.80
2022-10-19T12:59:23.530Z,7.53
2022-10-19T13:05:40.815Z,2.35
2022-10-19T13:08:48.094Z,2.50
2022-10-19T13:12:19.482Z,2.00
2022-10-19T13:15:35.118Z,2.30
2022-10-19T13:19:15.637Z,2.10
2022-10-19T13:22:25.746Z,2.30
2022-10-19T13:25:29.946Z,2.80
2022-10-19T13:28:31.898Z,2.10
2022-10-19T13:31:34.721Z,2.12
2022-10-19T13:34:36.726Z,2.00
2022-10-19T13:37:38.676Z,2.05
2022-10-19T13:40:50.086Z,2.58
2022-10-19T13:44:16.245Z,2.20
2022-10-19T13:47:35.581Z,2.37
2022-10-19T13:50:53.014Z,1.75
2022-10-19T13:54:30.224Z,2.30
2022-10-19T13:58:00.533Z,2.00
2022-10-19T14:01:38.086Z,1.90
2022-10-19T14:04:59.848Z,2.80
2022-10-19T14:08:15.670Z,2.40
2022-10-19T14:11:32.539Z,2.70
2022-10-19T14:14:44.872Z,2.37
2022-10-19T14:17:46.902Z,2.43
2022-10-19T14:21:06.586Z,2.65
2022-10-19T14:24:33.355Z,2.62
2022-10-19T14:27:35.913Z,2.37
2022-10-19T14:30:41.413Z,2.60
2022-10-19T14:33:47.910Z,2.67
2022-10-19T14:36:50.821Z,2.95
2022-10-19T14:40:26.525Z,2.90
2022-10-19T14:43:32.663Z,3.00
2022-10-19T14:46:34.907Z,3.10
2022-10-19T14:49:37.524Z,4.70
2022-10-19T14:52:40.690Z,2.70
2022-10-19T14:55:43.393Z,2.92
2022-10-19T14:58:50.152Z,3.50
2022-10-19T15:01:57.026Z,3.22
2022-10-19T15:05:01.872Z,2.60
2022-10-19T15:08:10.256Z,2.70
2022-10-19T15:11:32.664Z,3.10
2022-10-19T15:14:37.204Z,3.00
2022-10-19T15:18:30.312Z,2.80
2022-10-19T15:21:37.585Z,3.40
2022-10-19T15:24:41.050Z,3.67
2022-10-19T15:27:47.210Z,4.20
2022-10-19T15:31:15.134Z,3.60
2022-10-19T15:34:28.166Z,4.03
2022-10-19T15:37:30.136Z,3.47
2022-10-19T15:40:35.655Z,3.62
2022-10-19T15:43:43.401Z,3.72
2022-10-19T15:46:48.277Z,3.53
2022-10-19T15:49:54.478Z,3.70
2022-10-19T15:52:56.435Z,3.13
2022-10-19T15:55:58.644Z,3.20
2022-10-19T15:59:03.274Z,3.30
2022-10-19T16:02:13.537Z,4.00
2022-10-19T16:05:15.962Z,4.05
2022-10-19T16:08:18.384Z,3.67
2022-10-19T16:11:28.042Z,4.60
2022-10-19T16:14:33.076Z,4.30
2022-10-19T16:17:39.514Z,5.15
2022-10-19T16:20:43.284Z,4.70
2022-10-19T16:23:46.722Z,4.40
2022-10-19T16:26:49.219Z,4.65
2022-10-19T16:29:52.093Z,4.70
2022-10-19T16:32:55.047Z,5.97
2022-10-19T16:35:59.089Z,5.07
2022-10-19T16:39:02.243Z,4.80
2022-10-19T16:42:05.247Z,6.18
2022-10-19T16:45:10.898Z,5.85
2022-10-19T16:48:13.801Z,6.00
2022-10-19T16:51:21.805Z,8.00
2022-10-19T16:54:26.985Z,6.50
2022-10-19T16:57:29.941Z,7.57
2022-10-19T17:00:35.416Z,6.97
2022-10-19T17:03:38.809Z,6.07
2022-10-19T17:06:42.116Z,6.05
2022-10-19T17:09:47.877Z,6.27
2022-10-19T17:12:52.775Z,6.62
2022-10-19T17:15:55.607Z,6.03
2022-10-19T17:19:00.510Z,6.93
2022-10-19T17:22:05.869Z,6.12
2022-10-19T17:25:09.432Z,6.63
2022-10-19T17:28:12.526Z,9.60
2022-10-19T17:31:17.394Z,8.80
2022-10-19T17:34:20.681Z,9.50
2022-10-19T17:37:24.681Z,8.27
2022-10-19T17:40:33.612Z,6.77
2022-10-19T17:43:39.946Z,8.00
2022-10-19T17:46:44.646Z,7.87
2022-10-19T17:49:48.409Z,7.85
2022-10-19T17:52:52.767Z,7.97
2022-10-19T17:55:56.619Z,8.07
2022-10-19T17:59:07.108Z,8.10
2022-10-19T18:02:13.341Z,8.32
2022-10-19T18:05:23.792Z,8.75
2022-10-19T18:08:38.327Z,8.52
2022-10-19T18:11:45.370Z,9.00
2022-10-19T18:14:48.982Z,9.68
2022-10-19T18:17:53.009Z,10.73
2022-10-19T18:20:56.158Z,10.25
2022-10-19T18:24:01.943Z,9.73
2022-10-19T18:27:04.665Z,8.90
2022-10-19T18:30:13.895Z,8.95
2022-10-19T18:33:19.741Z,7.62
2022-10-19T18:36:23.845Z,7.53
2022-10-19T18:39:28.904Z,6.85
2022-10-19T18:42:34.126Z,6.70
2022-10-19T18:45:39.018Z,6.53
2022-10-19T18:48:42.209Z,5.53
2022-10-19T18:51:50.763Z,5.37
2022-10-19T18:54:59.265Z,5.70
2022-10-19T18:58:02.759Z,5.97
2022-10-19T19:01:12.219Z,5.30
2022-10-19T19:04:17.088Z,5.37
2022-10-19T19:07:20.398Z,4.85
2022-10-19T19:10:25.351Z,5.60
2022-10-19T19:13:28.729Z,5.50
2022-10-19T19:16:37.678Z,5.32
2022-10-19T19:19:41.778Z,6.40
2022-10-19T19:22:45.196Z,6.47
2022-10-19T19:25:50.439Z,6.68
2022-10-19T19:28:54.630Z,5.50
2022-10-19T19:31:58.452Z,6.93
2022-10-19T19:35:01.866Z,6.75
2022-10-19T19:38:04.964Z,6.00
2022-10-19T19:41:12.631Z,6.70
2022-10-19T19:44:17.711Z,6.13
2022-10-19T19:47:20.917Z,4.57
2022-10-19T19:50:25.431Z,5.05
2022-10-19T19:53:28.652Z,5.60
2022-10-19T19:56:32.506Z,4.93
2022-10-19T19:59:35.951Z,5.10
2022-10-19T20:02:39.822Z,3.92
2022-10-19T20:05:44.256Z,3.97
2022-10-19T20:08:52.782Z,4.30
2022-10-19T20:11:56.364Z,3.90
2022-10-19T20:14:59.665Z,3.90
2022-10-19T20:18:02.927Z,4.12
2022-10-19T20:21:13.302Z,3.67
2022-10-19T20:24:17.358Z,3.67
2022-10-19T20:27:20.386Z,2.90
2022-10-19T20:30:35.559Z,3.40
2022-10-19T20:33:40.550Z,3.90
2022-10-19T20:36:43.404Z,3.78
2022-10-19T20:39:47.771Z,3.55
2022-10-19T20:42:53.194Z,3.72
2022-10-19T20:46:08.693Z,3.60
2022-10-19T20:49:13.263Z,3.58
2022-10-19T20:52:16.344Z,3.05
2022-10-19T20:55:22.401Z,3.40
2022-10-19T20:58:25.123Z,3.80
2022-10-19T21:01:30.015Z,2.37
2022-10-19T21:04:32.599Z,2.85
2022-10-19T21:07:34.690Z,3.25
2022-10-19T21:10:37.235Z,3.22
2022-10-19T21:13:39.284Z,3.35
2022-10-19T21:16:41.399Z,3.43
2022-10-19T21:19:43.389Z,3.35
2022-10-19T21:22:45.402Z,3.42
2022-10-19T21:25:55.079Z,2.95
2022-10-19T21:28:57.732Z,2.77
2022-10-19T21:31:59.792Z,3.33
2022-10-19T21:35:02.087Z,3.15
2022-10-19T21:38:04.038Z,3.20
2022-10-19T21:41:10.903Z,3.03
2022-10-19T21:44:13.849Z,3.10
2022-10-19T21:47:15.960Z,2.70
2022-10-19T21:50:18.230Z,2.80
2022-10-19T21:53:20.872Z,3.12
2022-10-19T21:56:22.876Z,2.80
2022-10-19T21:59:25.265Z,2.80
2022-10-19T22:02:27.261Z,2.93
2022-10-19T22:05:29.310Z,2.90
2022-10-19T22:08:31.557Z,2.95
2022-10-19T22:11:33.548Z,2.55
2022-10-19T22:14:35.453Z,2.27
2022-10-19T22:17:37.482Z,2.80
2022-10-19T22:20:40.740Z,3.08
2022-10-19T22:23:44.935Z,2.50
2022-10-19T22:26:50.791Z,2.17
2022-10-19T22:29:53.296Z,3.13
2022-10-19T22:32:55.959Z,2.37
2022-10-19T22:36:00.138Z,2.20
2022-10-19T22:39:02.174Z,2.80
2022-10-19T22:42:26.241Z,2.62
2022-10-19T22:45:28.210Z,2.90
2022-10-19T22:48:30.328Z,2.87
2022-10-19T22:51:32.683Z,2.42
2022-10-19T22:54:34.786Z,2.70
2022-10-19T22:57:36.809Z,2.28
2022-10-19T23:00:40.444Z,2.80
2022-10-19T23:03:43.231Z,2.87
2022-10-19T23:06:45.357Z,3.17
2022-10-19T23:09:47.350Z,3.00
2022-10-19T23:12:51.517Z,2.87
2022-10-19T23:15:53.582Z,2.70
2022-10-19T23:18:55.795Z,2.73
2022-10-19T23:21:57.727Z,2.60
2022-10-19T23:24:59.721Z,2.60
2022-10-19T23:28:01.850Z,2.67
2022-10-19T23:31:15.284Z,2.80
2022-10-19T23:34:17.384Z,2.70
2022-10-19T23:37:19.422Z,2.60
2022-10-19T23:40:26.337Z,2.70
2022-10-19T23:43:28.914Z,2.70
2022-10-19T23:46:31.053Z,2.70
2022-10-19T23:49:33.019Z,3.57
2022-10-19T23:52:35.193Z,2.80
2022-10-19T23:55:37.628Z,2.62
2022-10-19T23:58:39.556Z,2.83
